Time;durP1;ratioP1;P1;durP2;ratioP2;P2;SDS_P1;SDS_P2;PMS_P1;PMS_P2;Temp;Humidity;BMP_temperature;BMP_pressure;BME280_temperature;BME280_humidity;BME280_pressure;Samples;Min_cycle;Max_cycle;Signal;HPM_P1;HPM_P2
2024/04/14 00:01:49;;;;;;;;;;;;;;;7.95;100.00;99050.56;5326787;26;19942;-90
2024/04/14 00:04:15;;;;;;;;;;;;;;;8.09;100.00;99043.22;5307478;26;20232;-87
2024/04/14 00:06:40;;;;;;;;;;;;;;;7.94;100.00;99052.31;5363668;26;19930;-89
2024/04/14 00:09:05;;;;;;;;;;;;;;;7.94;100.00;99049.66;5361624;26;19930;-88
2024/04/14 00:11:31;;;;;;;;;;;;;;;7.67;100.00;99049.34;5310760;26;19941;-89
2024/04/14 00:13:57;;;;;;;;;;;;;;;7.82;100.00;99042.91;5364244;26;19937;-88
2024/04/14 00:16:22;;;;;;;;;;;;;;;7.63;100.00;99041.19;5336936;26;19934;-90
2024/04/14 00:18:47;;;;;;;;;;;;;;;7.64;100.00;99042.97;5337131;26;19999;-89
2024/04/14 00:21:13;;;;;;;;;;;;;;;7.58;100.00;99040.06;5300162;26;19945;-89
2024/04/14 00:23:38;;;;;;;;;;;;;;;7.54;100.00;99039.00;5325357;26;20437;-90
2024/04/14 00:26:03;;;;;;;;;;;;;;;7.65;100.00;99031.50;5290606;26;19937;-89
2024/04/14 00:28:29;;;;;;;;;;;;;;;7.69;100.00;99026.41;5357731;26;20343;-89
2024/04/14 00:30:54;;;;;;;;;;;;;;;7.72;100.00;99028.31;5354843;26;19937;-88
2024/04/14 00:33:20;;;;;;;;;;;;;;;7.71;100.00;99024.75;5324618;26;19930;-89
2024/04/14 00:35:45;;;;;;;;;;;;;;;7.54;100.00;99027.47;5333017;26;19996;-88
2024/04/14 00:38:10;;;;;;;;;;;;;;;7.46;100.00;99032.41;5305324;26;20004;-88
2024/04/14 00:40:36;;;;;;;;;;;;;;;7.63;100.00;99018.19;5333372;26;19941;-89
2024/04/14 00:43:01;;;;;;;;;;;;;;;7.46;100.00;99024.47;5305150;26;19931;-89
2024/04/14 00:45:27;;;;;;;;;;;;;;;7.52;100.00;99024.75;5338128;26;19930;-90
2024/04/14 00:47:54;;;;;;;;;;;;;;;7.52;100.00;99019.44;5337305;26;19931;-89
2024/04/14 00:50:20;;;;;;;;;;;;;;;7.37;100.00;99024.94;5305570;26;19962;-88
2024/04/14 00:52:45;;;;;;;;;;;;;;;7.59;100.00;99021.53;5328143;26;19930;-88
2024/04/14 00:55:12;;;;;;;;;;;;;;;7.55;100.00;99019.56;5339699;26;19931;-88
2024/04/14 00:57:38;;;;;;;;;;;;;;;7.46;100.00;99019.16;5346480;26;19981;-88
2024/04/14 01:00:05;;;;;;;;;;;;;;;7.49;100.00;99024.59;5316223;26;19941;-88
2024/04/14 01:02:31;;;;;;;;;;;;;;;7.28;100.00;99019.22;5345903;26;19930;-89
2024/04/14 01:04:56;;;;;;;;;;;;;;;7.44;100.00;99027.06;5363317;26;19938;-88
2024/04/14 01:07:21;;;;;;;;;;;;;;;7.47;100.00;99020.97;5313063;26;20211;-88
2024/04/14 01:09:47;;;;;;;;;;;;;;;7.43;100.00;99025.25;5307784;26;20244;-89
2024/04/14 01:12:13;;;;;;;;;;;;;;;7.61;100.00;99022.50;5396727;26;20346;-88
2024/04/14 01:14:38;;;;;;;;;;;;;;;7.63;100.00;99020.84;5341585;26;19944;-88
2024/04/14 01:17:06;;;;;;;;;;;;;;;7.65;100.00;99015.59;5341234;26;19930;-88
2024/04/14 01:19:31;;;;;;;;;;;;;;;7.54;100.00;99012.44;5311156;26;19999;-88
2024/04/14 01:21:57;;;;;;;;;;;;;;;7.60;100.00;99018.03;5308319;26;19937;-88
2024/04/14 01:24:23;;;;;;;;;;;;;;;7.69;100.00;99012.22;5346056;26;19941;-89
2024/04/14 01:26:49;;;;;;;;;;;;;;;7.52;100.00;99016.78;5335130;26;20040;-89
2024/04/14 01:29:15;;;;;;;;;;;;;;;7.27;100.00;99006.78;5331262;26;19937;-88
2024/04/14 01:31:40;;;;;;;;;;;;;;;7.37;100.00;99009.00;5343300;26;19937;-89
2024/04/14 01:34:06;;;;;;;;;;;;;;;7.40;100.00;99017.13;5344027;26;19930;-87
2024/04/14 01:36:32;;;;;;;;;;;;;;;7.43;100.00;99021.69;5384784;26;19949;-88
2024/04/14 01:38:57;;;;;;;;;;;;;;;7.56;100.00;99016.06;5286703;26;20274;-90
2024/04/14 01:41:23;;;;;;;;;;;;;;;7.48;100.00;99017.50;5288028;26;19930;-90
2024/04/14 01:43:48;;;;;;;;;;;;;;;7.43;100.00;99014.63;5313431;26;19938;-88
2024/04/14 01:46:14;;;;;;;;;;;;;;;7.37;100.00;99014.31;5342415;26;19946;-90
2024/04/14 01:48:39;;;;;;;;;;;;;;;7.27;100.00;99004.13;5359114;26;19930;-90
2024/04/14 01:51:04;;;;;;;;;;;;;;;7.16;100.00;99019.53;5301947;26;20352;-89
2024/04/14 01:53:30;;;;;;;;;;;;;;;7.15;100.00;99014.19;5305281;26;20322;-88
2024/04/14 01:55:55;;;;;;;;;;;;;;;7.12;100.00;99001.66;5329983;26;20261;-89
2024/04/14 01:58:20;;;;;;;;;;;;;;;6.98;100.00;99009.81;5336316;26;19937;-89
2024/04/14 02:00:45;;;;;;;;;;;;;;;6.90;100.00;98999.75;5404598;26;19966;-88
2024/04/14 02:03:11;;;;;;;;;;;;;;;6.92;100.00;99007.78;5346235;26;19930;-89
2024/04/14 02:05:36;;;;;;;;;;;;;;;6.98;100.00;99009.81;5322055;26;19977;-89
2024/04/14 02:08:01;;;;;;;;;;;;;;;7.15;100.00;99011.53;5393833;26;19948;-92
2024/04/14 02:10:27;;;;;;;;;;;;;;;7.10;100.00;99011.31;5311918;26;19929;-90
2024/04/14 02:12:52;;;;;;;;;;;;;;;7.11;100.00;99006.91;5348885;26;19933;-90
2024/04/14 02:15:17;;;;;;;;;;;;;;;6.94;100.00;99007.00;5344275;26;20362;-90
2024/04/14 02:17:43;;;;;;;;;;;;;;;7.03;100.00;99008.28;5385310;26;19930;-89
2024/04/14 02:20:10;;;;;;;;;;;;;;;7.13;100.00;99007.88;5332277;26;19965;-89
2024/04/14 02:22:35;;;;;;;;;;;;;;;7.06;100.00;99004.03;5385907;26;19931;-91
2024/04/14 02:25:01;;;;;;;;;;;;;;;6.89;100.00;99007.63;5292091;26;19930;-91
2024/04/14 02:27:26;;;;;;;;;;;;;;;6.79;100.00;99006.28;5318028;26;20252;-89
2024/04/14 02:29:51;;;;;;;;;;;;;;;6.93;100.00;98996.31;5347887;26;19993;-92
2024/04/14 02:32:17;;;;;;;;;;;;;;;6.74;100.00;98998.94;5415664;26;19929;-92
2024/04/14 02:34:42;;;;;;;;;;;;;;;6.58;100.00;98999.94;5353509;26;19943;-92
2024/04/14 02:37:08;;;;;;;;;;;;;;;6.71;100.00;98991.75;5406821;26;20220;-93
2024/04/14 02:39:33;;;;;;;;;;;;;;;6.58;100.00;98998.19;5363425;26;19930;-91
2024/04/14 02:41:58;;;;;;;;;;;;;;;6.52;100.00;98999.66;5348981;26;19930;-89
2024/04/14 02:44:23;;;;;;;;;;;;;;;6.62;100.00;98993.97;5312006;26;19929;-90
2024/04/14 02:46:49;;;;;;;;;;;;;;;6.58;100.00;98994.63;5348054;26;19941;-89
2024/04/14 02:49:14;;;;;;;;;;;;;;;6.57;100.00;99006.09;5344223;26;19930;-89
2024/04/14 02:51:41;;;;;;;;;;;;;;;6.41;100.00;99002.66;5344339;26;19937;-90
2024/04/14 02:54:07;;;;;;;;;;;;;;;6.46;100.00;98999.31;5334689;26;19936;-89
2024/04/14 02:56:32;;;;;;;;;;;;;;;6.67;100.00;98997.75;5345482;26;19930;-89
2024/04/14 02:58:57;;;;;;;;;;;;;;;6.67;100.00;99001.28;5345203;26;20353;-90
2024/04/14 03:01:23;;;;;;;;;;;;;;;6.66;100.00;98987.97;5346067;26;19930;-88
2024/04/14 03:03:49;;;;;;;;;;;;;;;6.52;100.00;98983.75;5323261;26;19934;-89
2024/04/14 03:06:15;;;;;;;;;;;;;;;6.53;100.00;98998.81;5345936;26;19960;-89
2024/04/14 03:08:41;;;;;;;;;;;;;;;6.68;100.00;98987.19;5283431;26;19942;-89
2024/04/14 03:11:07;;;;;;;;;;;;;;;6.58;100.00;98989.34;5346867;26;19937;-89
2024/04/14 03:13:33;;;;;;;;;;;;;;;6.54;100.00;98995.31;5391870;26;20275;-89
2024/04/14 03:16:02;;;;;;;;;;;;;;;6.47;100.00;98990.53;5343962;26;19930;-88
2024/04/14 03:18:28;;;;;;;;;;;;;;;6.52;100.00;98987.31;5401415;26;20319;-89
2024/04/14 03:20:57;;;;;;;;;;;;;;;6.40;100.00;99000.84;5400729;26;19930;-90
2024/04/14 03:23:22;;;;;;;;;;;;;;;6.45;100.00;98998.41;5330942;26;19930;-89
2024/04/14 03:25:48;;;;;;;;;;;;;;;6.38;100.00;98994.56;5340822;26;20029;-89
2024/04/14 03:28:13;;;;;;;;;;;;;;;6.18;100.00;98992.66;5340501;26;20015;-89
2024/04/14 03:30:38;;;;;;;;;;;;;;;6.38;100.00;98997.22;5343843;26;20317;-89
2024/04/14 03:33:04;;;;;;;;;;;;;;;6.18;100.00;98987.38;5303305;26;19930;-88
2024/04/14 03:35:29;;;;;;;;;;;;;;;6.23;100.00;98987.56;5343098;26;20526;-90
2024/04/14 03:37:54;;;;;;;;;;;;;;;6.24;100.00;98989.41;5342160;26;20351;-89
2024/04/14 03:40:21;;;;;;;;;;;;;;;6.16;100.00;98989.91;5342657;26;20224;-88
2024/04/14 03:42:46;;;;;;;;;;;;;;;6.21;100.00;98995.44;5345212;26;19934;-89
2024/04/14 03:45:11;;;;;;;;;;;;;;;6.19;100.00;98989.19;5285618;26;19937;-90
2024/04/14 03:47:37;;;;;;;;;;;;;;;6.28;100.00;98988.75;5345108;26;19936;-91
2024/04/14 03:50:03;;;;;;;;;;;;;;;6.24;100.00;98994.72;5294329;26;19981;-91
2024/04/14 03:52:28;;;;;;;;;;;;;;;6.28;100.00;98989.66;5331505;26;20457;-89
2024/04/14 03:54:54;;;;;;;;;;;;;;;6.36;100.00;98992.66;5344918;26;19938;-88
2024/04/14 03:57:19;;;;;;;;;;;;;;;6.25;100.00;98994.78;5310998;26;19937;-89
2024/04/14 03:59:48;;;;;;;;;;;;;;;6.31;100.00;98994.16;5335144;26;20795;-91
2024/04/14 04:02:14;;;;;;;;;;;;;;;6.36;100.00;98998.84;5314897;26;19937;-89
2024/04/14 04:04:39;;;;;;;;;;;;;;;6.36;100.00;98998.84;5315126;26;19930;-89
2024/04/14 04:07:05;;;;;;;;;;;;;;;6.29;100.00;99006.44;5314015;26;19938;-90
2024/04/14 04:09:30;;;;;;;;;;;;;;;6.19;100.00;98999.78;5373744;26;20000;-89
2024/04/14 04:11:55;;;;;;;;;;;;;;;6.07;100.00;99008.00;5339606;26;20000;-89
2024/04/14 04:14:21;;;;;;;;;;;;;;;6.25;100.00;99008.03;5285523;26;20008;-90
2024/04/14 04:16:49;;;;;;;;;;;;;;;6.18;100.00;99003.25;5335677;26;19930;-89
2024/04/14 04:19:14;;;;;;;;;;;;;;;6.36;100.00;99005.91;5308487;26;19930;-89
2024/04/14 04:21:39;;;;;;;;;;;;;;;6.19;100.00;99007.72;5328104;26;19937;-90
2024/04/14 04:24:05;;;;;;;;;;;;;;;6.19;100.00;99002.44;5310045;26;19937;-88
2024/04/14 04:26:30;;;;;;;;;;;;;;;6.37;100.00;99006.00;5375220;26;19922;-92
2024/04/14 04:28:55;;;;;;;;;;;;;;;6.35;100.00;99009.41;5383174;26;19931;-90
2024/04/14 04:31:22;;;;;;;;;;;;;;;6.34;100.00;99012.88;5354978;26;19935;-92
2024/04/14 04:33:47;;;;;;;;;;;;;;;6.27;100.00;99006.34;5356322;26;19939;-92
2024/04/14 04:36:13;;;;;;;;;;;;;;;6.25;100.00;99005.38;5321718;26;19926;-93
2024/04/14 04:38:40;;;;;;;;;;;;;;;6.20;100.00;99008.63;5321938;26;19931;-93
2024/04/14 04:41:07;;;;;;;;;;;;;;;6.22;100.00;99007.84;5351340;26;19930;-92
2024/04/14 04:43:32;;;;;;;;;;;;;;;6.26;100.00;99012.50;5354507;26;19938;-92
2024/04/14 04:45:58;;;;;;;;;;;;;;;6.27;100.00;99011.66;5378840;26;19930;-92
2024/04/14 04:48:24;;;;;;;;;;;;;;;6.26;100.00;99012.50;5355926;26;19922;-93
2024/04/14 04:50:49;;;;;;;;;;;;;;;6.31;100.00;99003.03;5303313;26;19938;-91
2024/04/14 04:53:15;;;;;;;;;;;;;;;6.38;100.00;99001.59;5311216;26;19931;-89
2024/04/14 04:55:41;;;;;;;;;;;;;;;6.51;100.00;99001.34;5340312;26;19938;-90
2024/04/14 04:58:06;;;;;;;;;;;;;;;6.51;100.00;99008.41;5354293;26;19922;-90
2024/04/14 05:00:32;;;;;;;;;;;;;;;6.52;100.00;99007.59;5394667;26;19943;-92
2024/04/14 05:02:57;;;;;;;;;;;;;;;6.66;100.00;99007.44;5333163;26;19923;-92
2024/04/14 05:05:22;;;;;;;;;;;;;;;6.79;100.00;99005.38;5347544;26;19934;-91
2024/04/14 05:07:48;;;;;;;;;;;;;;;6.89;100.00;99007.63;5328988;26;19922;-92
2024/04/14 05:10:13;;;;;;;;;;;;;;;6.99;100.00;99008.97;5322744;26;20374;-91
2024/04/14 05:12:39;;;;;;;;;;;;;;;7.02;100.00;99010.03;5317774;26;20272;-89
2024/04/14 05:15:06;;;;;;;;;;;;;;;7.13;100.00;99010.53;5316006;26;19930;-90
2024/04/14 05:17:32;;;;;;;;;;;;;;;7.25;100.00;99002.25;5368094;26;19937;-89
2024/04/14 05:19:57;;;;;;;;;;;;;;;7.40;100.00;99003.84;5310545;26;19930;-90
2024/04/14 05:22:22;;;;;;;;;;;;;;;7.53;100.00;99009.75;5266670;26;19942;-89
2024/04/14 05:24:48;;;;;;;;;;;;;;;7.69;100.00;99020.19;5354294;26;19934;-89
2024/04/14 05:27:15;;;;;;;;;;;;;;;7.80;100.00;99018.00;5267948;26;19941;-89
2024/04/14 05:29:45;;;;;;;;;;;;;;;7.91;100.00;99016.75;5281651;27;20009;-89
2024/04/14 05:32:10;;;;;;;;;;;;;;;8.10;100.00;99021.13;5367955;26;19930;-89
2024/04/14 05:34:36;;;;;;;;;;;;;;;8.18;98.73;99022.34;5343751;26;19936;-90
2024/04/14 05:37:02;;;;;;;;;;;;;;;8.37;96.80;99022.31;5297791;26;20322;-89
2024/04/14 05:39:27;;;;;;;;;;;;;;;8.54;98.68;99022.16;5366501;26;20326;-90
2024/04/14 05:41:52;;;;;;;;;;;;;;;8.66;98.14;99014.66;5277832;26;19947;-90
2024/04/14 05:44:18;;;;;;;;;;;;;;;8.80;96.80;99026.78;5302873;26;20460;-90
2024/04/14 05:46:43;;;;;;;;;;;;;;;8.79;95.21;99021.41;5305147;26;19935;-90
2024/04/14 05:49:09;;;;;;;;;;;;;;;9.04;96.44;99029.50;5343217;26;20388;-90
2024/04/14 05:51:35;;;;;;;;;;;;;;;9.12;96.37;99030.72;5340311;26;20018;-89
2024/04/14 05:54:00;;;;;;;;;;;;;;;9.29;94.81;99033.13;5332319;26;20269;-90
2024/04/14 05:56:26;;;;;;;;;;;;;;;9.51;95.69;99033.13;5304983;26;20670;-91
2024/04/14 05:58:51;;;;;;;;;;;;;;;9.67;94.24;99023.94;5346391;26;20010;-89
2024/04/14 06:01:16;;;;;;;;;;;;;;;9.85;92.27;99018.41;5303306;26;20462;-89
2024/04/14 06:03:41;;;;;;;;;;;;;;;10.08;92.40;99022.81;5361507;26;20359;-90
2024/04/14 06:06:07;;;;;;;;;;;;;;;10.23;91.94;99023.34;5399272;26;19930;-90
2024/04/14 06:08:34;;;;;;;;;;;;;;;10.58;92.95;99015.66;5295115;26;20618;-90
2024/04/14 06:11:00;;;;;;;;;;;;;;;10.66;91.84;99024.84;5341629;26;20421;-90
2024/04/14 06:13:25;;;;;;;;;;;;;;;10.76;90.01;99028.72;5335868;26;20025;-90
2024/04/14 06:15:51;;;;;;;;;;;;;;;11.00;91.58;99026.84;5299812;26;20023;-90
2024/04/14 06:18:16;;;;;;;;;;;;;;;11.09;89.01;99023.56;5283641;26;19930;-90
2024/04/14 06:20:41;;;;;;;;;;;;;;;11.23;88.97;99021.34;5309440;26;19943;-90
2024/04/14 06:23:07;;;;;;;;;;;;;;;11.24;87.85;99028.47;5321853;26;20657;-88
2024/04/14 06:25:32;;;;;;;;;;;;;;;11.50;87.04;99027.53;5332500;26;20271;-90
2024/04/14 06:27:58;;;;;;;;;;;;;;;11.78;90.20;99029.22;5274135;26;20000;-90
2024/04/14 06:30:23;;;;;;;;;;;;;;;11.99;88.19;99037.00;5332289;26;19938;-89
2024/04/14 06:32:49;;;;;;;;;;;;;;;12.29;86.44;99026.25;5311330;26;19937;-89
2024/04/14 06:35:15;;;;;;;;;;;;;;;12.45;85.37;99032.91;5332479;26;19938;-89
2024/04/14 06:37:40;;;;;;;;;;;;;;;12.86;84.67;99029.50;5358226;26;19937;-91
2024/04/14 06:40:06;;;;;;;;;;;;;;;13.27;80.89;99031.44;5329116;26;20727;-88
2024/04/14 06:42:32;;;;;;;;;;;;;;;13.45;80.69;99036.28;5338658;26;19937;-89
2024/04/14 06:44:57;;;;;;;;;;;;;;;13.62;79.47;99033.09;5337805;26;19930;-87
2024/04/14 06:47:22;;;;;;;;;;;;;;;13.80;79.11;99030.81;5322818;26;19937;-90
2024/04/14 06:49:48;;;;;;;;;;;;;;;14.34;77.77;99027.41;5327076;26;19930;-89
2024/04/14 06:52:13;;;;;;;;;;;;;;;14.70;75.04;99024.50;5329210;26;19949;-92
2024/04/14 06:54:39;;;;;;;;;;;;;;;14.94;74.61;99026.72;5332468;26;19942;-90
2024/04/14 06:57:04;;;;;;;;;;;;;;;15.30;72.61;99020.13;5356302;26;19930;-91
2024/04/14 06:59:29;;;;;;;;;;;;;;;15.72;71.56;99022.56;5333872;26;19934;-90
2024/04/14 07:01:55;;;;;;;;;;;;;;;16.11;68.20;99021.22;5350949;26;19942;-90
2024/04/14 07:04:20;;;;;;;;;;;;;;;16.55;68.11;99013.63;5320011;26;19964;-89
2024/04/14 07:06:45;;;;;;;;;;;;;;;16.48;67.42;99025.25;5348966;26;20375;-90
2024/04/14 07:09:11;;;;;;;;;;;;;;;17.27;67.37;99022.34;5350546;26;19934;-89
2024/04/14 07:11:36;;;;;;;;;;;;;;;17.77;64.43;99020.88;5351013;26;20375;-90
2024/04/14 07:14:01;;;;;;;;;;;;;;;17.97;62.54;99013.78;5307547;26;20783;-90
2024/04/14 07:16:28;;;;;;;;;;;;;;;18.28;61.13;99013.88;5327421;26;19930;-89
2024/04/14 07:18:54;;;;;;;;;;;;;;;18.71;59.66;99018.50;5323005;26;19930;-90
2024/04/14 07:21:19;;;;;;;;;;;;;;;18.98;59.50;99011.34;5356068;26;19940;-90
2024/04/14 07:23:44;;;;;;;;;;;;;;;19.31;58.97;99018.53;5322482;26;20017;-90
2024/04/14 07:26:10;;;;;;;;;;;;;;;19.69;57.42;99010.38;5295925;26;19941;-89
2024/04/14 07:28:37;;;;;;;;;;;;;;;19.93;57.02;99009.38;5340805;26;19930;-89
2024/04/14 07:31:02;;;;;;;;;;;;;;;19.18;58.29;99020.34;5352021;26;19937;-90
2024/04/14 07:33:28;;;;;;;;;;;;;;;19.85;56.67;99013.91;5330251;26;19945;-90
2024/04/14 07:35:53;;;;;;;;;;;;;;;20.62;53.49;99003.59;5295195;26;19960;-91
2024/04/14 07:38:18;;;;;;;;;;;;;;;20.64;52.84;99009.91;5363140;26;19930;-91
2024/04/14 07:40:43;;;;;;;;;;;;;;;21.18;51.47;99007.69;5355339;26;20780;-91
2024/04/14 07:43:09;;;;;;;;;;;;;;;21.37;49.60;98999.41;5355111;26;19938;-91
2024/04/14 07:45:34;;;;;;;;;;;;;;;21.25;50.59;99003.09;5361001;26;20331;-91
2024/04/14 07:48:00;;;;;;;;;;;;;;;21.63;50.43;98996.41;5305024;26;20768;-91
2024/04/14 07:50:25;;;;;;;;;;;;;;;21.23;50.91;99002.22;5329611;26;19938;-90
2024/04/14 07:52:50;;;;;;;;;;;;;;;21.66;49.60;98996.41;5356971;26;19977;-90
2024/04/14 07:55:17;;;;;;;;;;;;;;;21.62;51.03;98994.63;5326671;26;19930;-91
2024/04/14 07:57:42;;;;;;;;;;;;;;;22.08;48.37;98988.63;5359621;26;19941;-91
2024/04/14 08:00:08;;;;;;;;;;;;;;;20.54;52.25;98997.31;5273451;26;19930;-90
2024/04/14 08:02:38;;;;;;;;;;;;;;;21.29;51.50;98995.84;5298472;26;19937;-91
2024/04/14 08:05:03;;;;;;;;;;;;;;;21.99;49.20;98992.34;5326107;26;19934;-91
2024/04/14 08:07:29;;;;;;;;;;;;;;;22.96;46.59;98983.78;5371117;26;19937;-91
2024/04/14 08:09:54;;;;;;;;;;;;;;;22.93;45.65;98991.97;5310843;26;19938;-91
2024/04/14 08:12:20;;;;;;;;;;;;;;;22.73;46.73;98994.97;5333175;26;19941;-91
2024/04/14 08:14:46;;;;;;;;;;;;;;;22.27;47.33;98996.53;5301783;26;19938;-90
2024/04/14 08:17:11;;;;;;;;;;;;;;;22.40;46.96;98997.28;5285803;26;19938;-90
2024/04/14 08:19:37;;;;;;;;;;;;;;;22.69;47.11;98993.22;5356529;26;20366;-90
2024/04/14 08:22:02;;;;;;;;;;;;;;;22.67;46.17;98992.38;5326962;26;20688;-90
2024/04/14 08:24:27;;;;;;;;;;;;;;;22.35;46.99;98995.56;5302578;26;19948;-89
2024/04/14 08:26:53;;;;;;;;;;;;;;;22.71;46.76;98986.88;5298266;26;19930;-91
2024/04/14 08:29:18;;;;;;;;;;;;;;;23.10;46.28;98995.31;5340054;26;19941;-89
2024/04/14 08:31:43;;;;;;;;;;;;;;;23.63;45.76;98996.19;5295114;26;19937;-90
2024/04/14 08:34:09;;;;;;;;;;;;;;;23.07;45.90;98995.38;5329598;26;19962;-90
2024/04/14 08:36:34;;;;;;;;;;;;;;;22.63;47.17;98998.78;5326677;26;20335;-90
2024/04/14 08:38:59;;;;;;;;;;;;;;;23.11;45.74;99008.00;5363445;26;19929;-90
2024/04/14 08:41:25;;;;;;;;;;;;;;;23.28;45.55;99000.47;5270848;27;19931;-90
2024/04/14 08:43:52;;;;;;;;;;;;;;;23.83;45.29;99000.38;5330642;26;19931;-90
2024/04/14 08:46:19;;;;;;;;;;;;;;;23.79;45.04;99005.88;5324004;26;19938;-91
2024/04/14 08:48:46;;;;;;;;;;;;;;;24.22;44.62;98991.34;5328641;26;19938;-91
2024/04/14 08:51:12;;;;;;;;;;;;;;;24.24;44.04;98989.50;5330061;26;19930;-89
2024/04/14 08:53:38;;;;;;;;;;;;;;;23.65;44.95;98994.34;5332974;26;19934;-89
2024/04/14 08:56:04;;;;;;;;;;;;;;;23.90;44.72;98991.13;5333686;26;19949;-90
2024/04/14 08:58:31;;;;;;;;;;;;;;;23.58;45.99;98992.66;5324656;26;20022;-90
2024/04/14 09:01:03;;;;;;;;;;;;;;;23.78;45.46;98989.56;5362482;26;20007;-87
2024/04/14 09:03:32;;;;;;;;;;;;;;;23.75;45.80;98989.63;5334676;26;19938;-89
2024/04/14 09:06:05;;;;;;;;;;;;;;;24.04;44.89;98989.91;5292705;26;20415;-89
2024/04/14 09:08:31;;;;;;;;;;;;;;;23.56;45.61;98994.47;5348746;26;19941;-88
2024/04/14 09:10:56;;;;;;;;;;;;;;;23.41;46.38;98994.78;5350119;26;19931;-88
2024/04/14 09:13:25;;;;;;;;;;;;;;;23.48;46.08;98991.03;5309524;26;19962;-88
2024/04/14 09:15:51;;;;;;;;;;;;;;;24.02;44.73;98991.78;5302301;26;20746;-88
2024/04/14 09:18:16;;;;;;;;;;;;;;;24.27;44.86;98992.16;5332901;26;19930;-89
2024/04/14 09:20:43;;;;;;;;;;;;;;;24.87;43.58;98990.81;5352699;26;20254;-89
2024/04/14 09:23:08;;;;;;;;;;;;;;;25.41;42.58;98981.28;5308139;26;19966;-88
2024/04/14 09:25:35;;;;;;;;;;;;;;;25.56;41.25;98986.31;5329218;26;20033;-89
2024/04/14 09:28:03;;;;;;;;;;;;;;;25.06;42.38;98988.53;5324374;26;19930;-88
2024/04/14 09:30:29;;;;;;;;;;;;;;;25.06;42.76;98989.41;5330751;26;19945;-88
2024/04/14 09:32:57;;;;;;;;;;;;;;;24.96;42.35;98984.22;5331443;26;19934;-88
2024/04/14 09:35:22;;;;;;;;;;;;;;;24.75;43.07;98991.09;5301734;26;19938;-88
2024/04/14 09:37:48;;;;;;;;;;;;;;;24.95;42.97;98990.59;5337152;26;19942;-89
2024/04/14 09:40:15;;;;;;;;;;;;;;;26.15;39.78;98985.59;5328703;26;19938;-88
2024/04/14 09:42:43;;;;;;;;;;;;;;;26.90;38.60;98980.53;5331328;26;19936;-90
2024/04/14 09:45:08;;;;;;;;;;;;;;;26.53;39.85;98981.72;5349075;26;19940;-88
2024/04/14 09:47:36;;;;;;;;;;;;;;;26.48;39.34;98981.84;5327504;26;19935;-86
2024/04/14 09:50:01;;;;;;;;;;;;;;;25.93;41.31;98986.22;5326883;26;19938;-87
2024/04/14 09:52:28;;;;;;;;;;;;;;;25.93;41.35;98974.41;5352063;26;19931;-88
2024/04/14 09:54:56;;;;;;;;;;;;;;;25.97;40.61;98970.63;5318051;26;19937;-88
2024/04/14 09:57:21;;;;;;;;;;;;;;;25.49;41.80;98973.78;5326460;26;19931;-88
2024/04/14 09:59:46;;;;;;;;;;;;;;;25.73;41.39;98970.38;5348379;26;19938;-88
2024/04/14 10:02:16;;;;;;;;;;;;;;;26.55;39.59;98968.91;5321502;26;19937;-89
2024/04/14 10:04:45;;;;;;;;;;;;;;;26.20;40.93;98972.66;5323834;26;19937;-88
2024/04/14 10:07:12;;;;;;;;;;;;;;;25.81;41.01;98962.84;5378482;26;19942;-88
2024/04/14 10:09:37;;;;;;;;;;;;;;;25.80;41.04;98960.19;5382189;26;19930;-87
2024/04/14 10:12:03;;;;;;;;;;;;;;;25.73;40.77;98964.00;5320916;26;19942;-89
2024/04/14 10:14:38;;;;;;;;;;;;;;;26.53;40.25;98957.97;5294300;26;20528;-88
2024/04/14 10:17:05;;;;;;;;;;;;;;;27.30;38.25;98953.59;5343204;26;20029;-87
2024/04/14 10:19:34;;;;;;;;;;;;;;;27.10;38.61;98953.41;5320540;26;19937;-89
2024/04/14 10:22:00;;;;;;;;;;;;;;;26.35;40.50;98945.75;5288313;26;19930;-87
2024/04/14 10:24:26;;;;;;;;;;;;;;;27.38;38.59;98949.72;5314422;26;19945;-88
2024/04/14 10:26:51;;;;;;;;;;;;;;;26.68;39.81;98948.38;5375811;26;20264;-88
2024/04/14 10:29:19;;;;;;;;;;;;;;;28.69;36.53;98938.34;5322313;26;19934;-88
2024/04/14 10:31:51;;;;;;;;;;;;;;;27.34;38.11;98933.38;5379454;26;19930;-88
2024/04/14 10:34:21;;;;;;;;;;;;;;;28.03;36.80;98935.47;5325900;26;20378;-88
2024/04/14 10:36:54;;;;;;;;;;;;;;;27.69;36.83;98933.94;5288202;26;19980;-90
2024/04/14 10:39:20;;;;;;;;;;;;;;;27.59;37.76;98937.97;5294987;26;19954;-88
2024/04/14 10:41:45;;;;;;;;;;;;;;;27.75;37.04;98933.75;5377908;26;19930;-88
2024/04/14 10:44:14;;;;;;;;;;;;;;;27.58;36.86;98934.34;5286453;26;19942;-90
2024/04/14 10:46:40;;;;;;;;;;;;;;;28.45;36.82;98929.25;5320168;26;20000;-89
2024/04/14 10:49:05;;;;;;;;;;;;;;;27.86;36.96;98919.63;5321226;26;19938;-88
2024/04/14 10:51:32;;;;;;;;;;;;;;;29.15;35.13;98912.63;5321699;26;19970;-88
2024/04/14 10:53:58;;;;;;;;;;;;;;;29.67;33.59;98910.34;5303209;26;20356;-88
2024/04/14 10:56:23;;;;;;;;;;;;;;;30.57;31.73;98910.72;5339709;26;19937;-89
2024/04/14 10:58:48;;;;;;;;;;;;;;;30.11;32.37;98910.13;5331605;26;19930;-87
2024/04/14 11:01:14;;;;;;;;;;;;;;;29.43;33.81;98901.31;5321037;26;19942;-88
2024/04/14 11:03:40;;;;;;;;;;;;;;;29.11;33.62;98902.72;5349496;26;20367;-88
2024/04/14 11:06:05;;;;;;;;;;;;;;;28.28;34.68;98888.75;5379303;26;19931;-87
2024/04/14 11:08:33;;;;;;;;;;;;;;;27.59;35.98;98894.09;5367204;26;19941;-87
2024/04/14 11:11:00;;;;;;;;;;;;;;;28.20;35.22;98889.03;5337054;26;20633;-88
2024/04/14 11:13:27;;;;;;;;;;;;;;;28.77;34.34;98882.16;5377790;26;19930;-87
2024/04/14 11:15:57;;;;;;;;;;;;;;;29.50;33.31;98874.44;5331374;26;19937;-89
2024/04/14 11:18:25;;;;;;;;;;;;;;;29.56;33.29;98879.66;5320783;26;19946;-87
2024/04/14 11:20:50;;;;;;;;;;;;;;;30.15;32.56;98876.03;5283504;26;19931;-88
2024/04/14 11:23:16;;;;;;;;;;;;;;;29.04;32.89;98880.13;5318447;26;19934;-87
2024/04/14 11:25:41;;;;;;;;;;;;;;;29.14;32.81;98877.88;5317395;26;19941;-87
2024/04/14 11:28:06;;;;;;;;;;;;;;;30.03;31.79;98869.19;5365189;26;19958;-88
2024/04/14 11:30:32;;;;;;;;;;;;;;;30.70;30.84;98866.91;5355620;26;19930;-88
2024/04/14 11:33:01;;;;;;;;;;;;;;;30.60;30.60;98869.22;5290479;26;19938;-88
2024/04/14 11:35:28;;;;;;;;;;;;;;;30.64;30.61;98862.59;5277865;26;19930;-87
2024/04/14 11:37:54;;;;;;;;;;;;;;;29.52;31.68;98864.28;5281784;26;19930;-87
2024/04/14 11:40:23;;;;;;;;;;;;;;;29.62;32.06;98861.06;5317294;26;20385;-88
2024/04/14 11:42:48;;;;;;;;;;;;;;;30.06;31.18;98846.16;5320707;26;19942;-88
2024/04/14 11:45:14;;;;;;;;;;;;;;;30.00;30.79;98855.63;5374623;26;19966;-88
2024/04/14 11:47:39;;;;;;;;;;;;;;;28.80;32.73;98853.69;5313021;26;19939;-88
2024/04/14 11:50:05;;;;;;;;;;;;;;;29.13;31.56;98859.59;5379627;26;19931;-88
2024/04/14 11:52:30;;;;;;;;;;;;;;;29.95;30.59;98845.78;5318801;26;19941;-88
2024/04/14 11:54:55;;;;;;;;;;;;;;;30.33;30.26;98846.72;5319722;26;20985;-87
2024/04/14 11:57:22;;;;;;;;;;;;;;;30.28;30.82;98840.53;5341501;26;20008;-88
2024/04/14 11:59:47;;;;;;;;;;;;;;;28.58;32.05;98845.44;5344209;26;19997;-88
2024/04/14 12:02:13;;;;;;;;;;;;;;;29.02;31.63;98834.44;5350001;26;20352;-88
2024/04/14 12:04:38;;;;;;;;;;;;;;;30.29;29.33;98839.59;5345437;26;19962;-88
2024/04/14 12:07:03;;;;;;;;;;;;;;;30.92;28.81;98840.97;5319704;26;19938;-88
2024/04/14 12:09:29;;;;;;;;;;;;;;;30.25;29.73;98838.84;5318669;26;19971;-88
2024/04/14 12:11:54;;;;;;;;;;;;;;;29.58;31.34;98836.50;5318317;26;19930;-88
2024/04/14 12:14:20;;;;;;;;;;;;;;;30.84;30.09;98825.78;5340236;26;19937;-88
2024/04/14 12:16:47;;;;;;;;;;;;;;;29.60;30.94;98824.47;5284095;26;19930;-87
2024/04/14 12:19:12;;;;;;;;;;;;;;;29.85;30.69;98824.22;5341798;26;19931;-88
2024/04/14 12:21:38;;;;;;;;;;;;;;;29.44;30.87;98819.72;5287998;26;19942;-88
2024/04/14 12:24:05;;;;;;;;;;;;;;;29.61;31.13;98825.38;5342413;26;19930;-86
2024/04/14 12:26:31;;;;;;;;;;;;;;;30.58;29.45;98824.34;5347469;26;19937;-87
2024/04/14 12:28:57;;;;;;;;;;;;;;;29.90;31.28;98816.63;5273402;26;19941;-87
2024/04/14 12:31:22;;;;;;;;;;;;;;;30.75;29.07;98820.75;5321027;26;19934;-88
2024/04/14 12:33:48;;;;;;;;;;;;;;;31.69;28.40;98809.31;5320527;26;19934;-87
2024/04/14 12:36:13;;;;;;;;;;;;;;;30.96;29.38;98807.75;5344221;26;19930;-87
2024/04/14 12:38:39;;;;;;;;;;;;;;;30.36;29.82;98806.13;5340325;26;20001;-87
2024/04/14 12:41:04;;;;;;;;;;;;;;;30.13;29.69;98807.28;5340396;26;19949;-87